Time;durP1;ratioP1;P1;durP2;ratioP2;P2;SDS_P1;SDS_P2;PMS_P1;PMS_P2;Temp;Humidity;BMP_temperature;BMP_pressure;BME280_temperature;BME280_humidity;BME280_pressure;Samples;Min_cycle;Max_cycle;Signal;HPM_P1;HPM_P2
2022/04/20 04:01:33;;;;;;;7.70;5.30;;;2.10;99.90;;;;;;6268283;22;20057;-75
2022/04/20 04:03:58;;;;;;;6.35;4.60;;;2.00;99.90;;;;;;6282097;22;20395;-75
2022/04/20 04:06:24;;;;;;;6.43;4.72;;;2.00;99.90;;;;;;6281878;22;20083;-75
2022/04/20 04:08:50;;;;;;;6.43;4.93;;;1.90;99.90;;;;;;6283089;22;20008;-75
2022/04/20 04:11:15;;;;;;;7.85;5.50;;;1.80;99.90;;;;;;6283206;22;20076;-75
2022/04/20 04:13:41;;;;;;;7.07;5.45;;;1.90;99.90;;;;;;6283395;22;20095;-75
2022/04/20 04:16:06;;;;;;;6.50;5.53;;;1.90;99.90;;;;;;6279756;22;20040;-77
2022/04/20 04:18:32;;;;;;;8.50;6.05;;;1.70;99.90;;;;;;6281274;22;20035;-77
2022/04/20 04:20:58;;;;;;;9.60;5.60;;;1.70;99.90;;;;;;6283403;22;20019;-77
2022/04/20 04:23:23;;;;;;;7.80;5.90;;;1.80;99.90;;;;;;6281725;22;20012;-78
2022/04/20 04:25:49;;;;;;;11.50;6.03;;;1.80;99.90;;;;;;6282822;22;20066;-75
2022/04/20 04:28:15;;;;;;;7.80;5.47;;;1.70;99.90;;;;;;6283068;22;20026;-75
2022/04/20 04:30:41;;;;;;;8.57;5.65;;;1.70;99.90;;;;;;6283304;22;20062;-75
2022/04/20 04:33:06;;;;;;;7.80;5.75;;;1.60;99.90;;;;;;6283459;22;20004;-76
2022/04/20 04:35:34;;;;;;;6.20;5.13;;;1.70;99.90;;;;;;6281497;22;20066;-75
2022/04/20 04:37:59;;;;;;;8.10;6.10;;;1.60;99.90;;;;;;6282934;22;20059;-75
2022/04/20 04:40:25;;;;;;;10.13;6.18;;;1.70;99.90;;;;;;6281571;22;20063;-75
2022/04/20 04:42:51;;;;;;;8.95;6.57;;;1.70;99.90;;;;;;6281637;22;20004;-75
2022/04/20 04:50:44;;;;;;;8.07;5.70;;;1.90;99.90;;;;;;6283417;22;20062;-75
2022/04/20 04:53:10;;;;;;;11.00;6.18;;;1.90;99.90;;;;;;6281674;22;20008;-75
2022/04/20 04:55:35;;;;;;;10.85;6.15;;;1.90;99.90;;;;;;6283221;22;20008;-75
2022/04/20 04:58:01;;;;;;;9.07;6.28;;;1.90;99.90;;;;;;6283145;22;20004;-75
2022/04/20 05:00:26;;;;;;;9.32;5.97;;;1.90;99.90;;;;;;6282841;22;20086;-75
2022/04/20 05:02:52;;;;;;;14.57;6.53;;;1.90;99.90;;;;;;6283078;22;20474;-75
2022/04/20 05:05:17;;;;;;;10.20;6.80;;;2.00;99.90;;;;;;6282682;22;20013;-75
2022/04/20 05:07:43;;;;;;;12.65;6.85;;;2.00;99.90;;;;;;6283111;22;20007;-75
2022/04/20 05:10:09;;;;;;;9.52;6.50;;;2.00;99.90;;;;;;6282615;22;20008;-75
2022/04/20 05:12:35;;;;;;;9.15;6.40;;;2.00;99.90;;;;;;6283116;22;20095;-76
2022/04/20 05:15:01;;;;;;;9.75;6.60;;;2.00;99.90;;;;;;6282364;22;20351;-76
2022/04/20 05:17:26;;;;;;;9.15;7.40;;;2.10;99.90;;;;;;6283022;22;20444;-76
2022/04/20 05:19:52;;;;;;;10.35;6.50;;;2.10;99.90;;;;;;6255081;22;20013;-75
2022/04/20 05:22:18;;;;;;;11.57;7.20;;;2.30;99.90;;;;;;6284221;22;20008;-76
2022/04/20 05:24:43;;;;;;;8.90;6.90;;;2.30;99.90;;;;;;6282853;22;20396;-74
2022/04/20 05:27:09;;;;;;;9.73;6.38;;;2.40;99.90;;;;;;6283707;22;20080;-74
2022/04/20 05:29:34;;;;;;;8.60;7.35;;;2.50;99.90;;;;;;6281491;22;20084;-73
2022/04/20 05:32:02;;;;;;;9.98;6.55;;;2.60;99.90;;;;;;6282921;22;20011;-76
2022/04/20 05:34:30;;;;;;;11.52;6.80;;;2.70;99.90;;;;;;6282669;22;20012;-76
2022/04/20 05:42:24;;;;;;;9.95;6.40;;;3.00;99.90;;;;;;6283133;22;20005;-76
2022/04/20 05:44:50;;;;;;;12.55;6.85;;;3.10;99.90;;;;;;6283030;22;20004;-75
2022/04/20 05:47:15;;;;;;;9.05;6.22;;;3.20;99.90;;;;;;6282995;22;20004;-75
2022/04/20 05:49:41;;;;;;;8.85;6.40;;;3.30;99.90;;;;;;6282486;22;20008;-75
2022/04/20 05:52:07;;;;;;;13.10;6.35;;;3.40;99.90;;;;;;6282432;22;20059;-75
2022/04/20 05:54:35;;;;;;;12.57;6.68;;;3.50;99.90;;;;;;6255245;22;20023;-75
2022/04/20 05:57:01;;;;;;;11.88;6.78;;;3.50;99.90;;;;;;6283900;22;20004;-75
2022/04/20 05:59:27;;;;;;;11.85;7.07;;;3.60;99.90;;;;;;6283679;22;20047;-75
2022/04/20 06:01:53;;;;;;;11.98;7.30;;;3.70;99.90;;;;;;6284067;22;20008;-75
2022/04/20 06:04:18;;;;;;;11.15;7.20;;;3.80;99.90;;;;;;6284102;22;20008;-75
2022/04/20 06:06:44;;;;;;;12.82;8.05;;;3.90;99.90;;;;;;6245853;22;20277;-75
2022/04/20 06:09:10;;;;;;;11.27;6.90;;;4.00;99.90;;;;;;6276437;22;20006;-77
2022/04/20 06:11:35;;;;;;;11.32;6.57;;;4.30;99.90;;;;;;6276005;22;20016;-76
2022/04/20 06:14:01;;;;;;;7.95;6.32;;;4.40;99.90;;;;;;6280553;22;20475;-76
2022/04/20 06:16:27;;;;;;;11.13;6.38;;;4.50;99.90;;;;;;6285283;22;20035;-76
2022/04/20 06:18:54;;;;;;;12.18;6.70;;;4.70;99.90;;;;;;6257824;22;20328;-76
2022/04/20 06:21:20;;;;;;;8.05;6.10;;;4.80;99.90;;;;;;6256815;22;20078;-76
2022/04/20 06:23:45;;;;;;;8.82;5.65;;;4.80;99.90;;;;;;6284565;22;20136;-80
2022/04/20 06:26:11;;;;;;;7.50;5.97;;;5.00;99.90;;;;;;6256736;22;20414;-76
2022/04/20 06:28:37;;;;;;;11.55;6.30;;;5.20;99.90;;;;;;6283480;22;20007;-76
2022/04/20 06:31:04;;;;;;;12.27;5.50;;;5.40;99.90;;;;;;6282538;22;20070;-76
2022/04/20 06:33:31;;;;;;;10.90;5.80;;;5.50;99.90;;;;;;6256088;22;20469;-76
2022/04/20 06:35:58;;;;;;;11.35;5.72;;;5.80;99.90;;;;;;6283860;22;20034;-76
2022/04/20 06:38:23;;;;;;;9.30;5.53;;;6.00;99.90;;;;;;6256045;22;20027;-77
2022/04/20 06:40:50;;;;;;;12.63;6.00;;;6.10;99.90;;;;;;6283889;22;20464;-76
2022/04/20 06:43:15;;;;;;;9.57;5.90;;;6.20;99.90;;;;;;6256128;22;20016;-76
2022/04/20 06:45:41;;;;;;;11.20;5.65;;;6.30;99.90;;;;;;6283786;22;20008;-76
2022/04/20 06:48:07;;;;;;;9.45;6.13;;;6.40;99.90;;;;;;6283428;22;20000;-76
2022/04/20 06:50:32;;;;;;;9.45;5.85;;;6.50;99.90;;;;;;6285975;22;20015;-77
2022/04/20 06:58:35;;;;;;;7.85;6.10;;;7.00;99.90;;;;;;6283621;22;20004;-77
2022/04/20 07:01:04;;;;;;;6.95;5.35;;;7.20;99.90;;;;;;6255858;22;20023;-78
2022/04/20 07:03:31;;;;;;;6.63;5.43;;;7.30;99.90;;;;;;6285365;22;20015;-78
2022/04/20 07:05:56;;;;;;;5.88;5.18;;;7.50;99.90;;;;;;6283880;22;20035;-80
2022/04/20 07:08:22;;;;;;;7.15;5.15;;;7.70;99.90;;;;;;6283486;22;20432;-77
2022/04/20 07:10:48;;;;;;;8.07;5.60;;;7.80;99.90;;;;;;6259510;22;20384;-80
2022/04/20 07:13:14;;;;;;;7.38;5.25;;;7.90;99.90;;;;;;6260272;22;20437;-79
2022/04/20 07:15:40;;;;;;;8.95;5.20;;;8.00;99.90;;;;;;6264272;22;20016;-78
2022/04/20 07:18:06;;;;;;;12.73;5.88;;;8.20;99.90;;;;;;6284252;22;20008;-80
2022/04/20 07:20:34;;;;;;;8.02;4.82;;;8.30;99.00;;;;;;6283953;22;20485;-78
2022/04/20 07:23:00;;;;;;;8.20;4.90;;;8.40;98.40;;;;;;6281883;22;20015;-78
2022/04/20 07:25:26;;;;;;;6.38;4.60;;;8.60;98.20;;;;;;6285501;22;20014;-78
2022/04/20 07:27:51;;;;;;;5.20;4.47;;;8.80;97.70;;;;;;6281992;22;20371;-79
2022/04/20 07:30:17;;;;;;;6.55;4.35;;;8.90;96.70;;;;;;6284766;22;20015;-78
2022/04/20 07:32:47;;;;;;;6.43;4.45;;;9.10;96.10;;;;;;6284775;22;20465;-76
2022/04/20 07:35:12;;;;;;;6.53;5.00;;;9.20;95.80;;;;;;6283280;22;20432;-77
2022/04/20 07:37:38;;;;;;;5.30;4.68;;;9.30;96.00;;;;;;6281649;22;20009;-77
2022/04/20 07:40:04;;;;;;;5.63;4.25;;;9.50;96.00;;;;;;6281520;22;20427;-77
2022/04/20 07:42:30;;;;;;;5.55;4.20;;;9.70;94.50;;;;;;6281362;22;20372;-76
2022/04/20 07:44:56;;;;;;;5.03;4.53;;;9.60;94.10;;;;;;6281809;22;20008;-80
2022/04/20 07:47:27;;;;;;;5.80;4.60;;;9.80;93.90;;;;;;6281972;22;20034;-77
2022/04/20 07:52:39;;;;;;;7.50;4.28;;;10.20;93.10;;;;;;6285131;22;20469;-77
2022/04/20 07:55:09;;;;;;;5.43;4.18;;;10.40;92.30;;;;;;6281810;22;20014;-76
2022/04/20 07:57:35;;;;;;;6.30;4.70;;;10.60;90.60;;;;;;6283374;22;20012;-78
2022/04/20 08:00:02;;;;;;;5.93;4.45;;;10.50;90.90;;;;;;6283832;22;20013;-76
2022/04/20 08:02:28;;;;;;;7.47;4.47;;;10.60;90.70;;;;;;6283708;22;20036;-77
2022/04/20 08:04:53;;;;;;;6.47;4.22;;;10.70;90.80;;;;;;6283213;22;20091;-76
2022/04/20 08:07:19;;;;;;;6.97;5.07;;;10.80;88.50;;;;;;6283819;22;20435;-81
2022/04/20 08:09:45;;;;;;;6.40;4.50;;;10.70;90.50;;;;;;6284306;22;20496;-84
2022/04/20 08:12:11;;;;;;;5.13;4.60;;;11.00;90.00;;;;;;6284097;22;20015;-78
2022/04/20 08:14:36;;;;;;;6.35;4.90;;;11.00;89.60;;;;;;6281443;22;20007;-77
2022/04/20 08:17:02;;;;;;;8.07;4.88;;;11.10;87.60;;;;;;6283311;22;20091;-76
2022/04/20 08:19:29;;;;;;;6.07;4.55;;;11.20;87.20;;;;;;6282664;22;20371;-76
2022/04/20 08:21:55;;;;;;;7.72;5.00;;;11.40;88.00;;;;;;6255665;22;20020;-76
2022/04/20 08:24:21;;;;;;;5.50;4.32;;;11.50;84.60;;;;;;6283298;22;20067;-79
2022/04/20 08:26:47;;;;;;;6.43;4.53;;;11.60;84.70;;;;;;6283107;22;20533;-77
2022/04/20 08:29:12;;;;;;;8.93;4.63;;;11.80;85.10;;;;;;6255661;22;20505;-76
2022/04/20 08:31:38;;;;;;;6.78;4.20;;;12.00;84.80;;;;;;6283448;22;20061;-76
2022/04/20 08:34:04;;;;;;;7.15;4.75;;;12.10;82.10;;;;;;6256252;22;20035;-77
2022/04/20 08:36:30;;;;;;;6.22;4.70;;;12.20;83.30;;;;;;6282754;22;20012;-80
2022/04/20 08:38:56;;;;;;;7.43;4.60;;;12.30;79.90;;;;;;6284139;22;20008;-77
2022/04/20 08:41:22;;;;;;;7.00;4.53;;;12.40;81.30;;;;;;6257059;22;20023;-80
2022/04/20 08:43:47;;;;;;;4.57;4.03;;;12.50;77.70;;;;;;6283274;22;20058;-79
2022/04/20 08:46:16;;;;;;;6.75;4.80;;;12.40;77.30;;;;;;6283034;22;20069;-78
2022/04/20 08:48:42;;;;;;;6.18;4.53;;;12.60;77.40;;;;;;6255560;22;20530;-79
2022/04/20 08:51:08;;;;;;;5.40;3.60;;;12.90;79.90;;;;;;6287189;22;20093;-81
2022/04/20 08:53:35;;;;;;;6.68;4.00;;;12.80;75.30;;;;;;6284014;22;20444;-77
2022/04/20 08:58:56;;;;;;;5.40;3.97;;;12.70;74.20;;;;;;6285620;22;20326;-78
2022/04/20 09:01:22;;;;;;;7.07;4.20;;;12.80;73.90;;;;;;6265380;22;20039;-78
2022/04/20 09:03:47;;;;;;;5.93;3.83;;;12.70;71.90;;;;;;6292970;22;20054;-78
2022/04/20 09:06:16;;;;;;;5.85;4.07;;;12.50;69.90;;;;;;6257470;22;20007;-77
2022/04/20 09:08:44;;;;;;;4.70;3.60;;;12.50;71.80;;;;;;6255891;22;20008;-78
2022/04/20 09:11:10;;;;;;;7.20;3.70;;;12.70;71.90;;;;;;6259824;22;20532;-78
2022/04/20 09:13:41;;;;;;;6.90;3.90;;;12.80;72.60;;;;;;6258208;22;20072;-78
2022/04/20 09:16:08;;;;;;;4.63;4.10;;;12.90;72.80;;;;;;6283240;22;20014;-78
2022/04/20 09:18:35;;;;;;;9.68;4.43;;;13.10;71.10;;;;;;6282797;22;20000;-77
2022/04/20 09:21:09;;;;;;;5.38;3.78;;;13.10;74.20;;;;;;6255611;22;20020;-77
2022/04/20 09:23:35;;;;;;;4.88;3.53;;;13.20;71.10;;;;;;6282701;22;20381;-75
2022/04/20 09:26:15;;;;;;;5.10;3.60;;;13.10;71.70;;;;;;6255413;22;20479;-75
2022/04/20 09:29:01;;;;;;;6.43;3.83;;;13.20;70.40;;;;;;6283111;22;20059;-76
2022/04/20 09:31:42;;;;;;;6.90;3.55;;;13.00;69.90;;;;;;6256327;22;20019;-77
2022/04/20 09:34:07;;;;;;;6.85;4.15;;;13.10;73.10;;;;;;6256339;22;20351;-77
2022/04/20 09:36:45;;;;;;;6.10;4.10;;;13.50;72.20;;;;;;6283928;22;20494;-77
2022/04/20 09:39:14;;;;;;;6.03;3.80;;;13.50;67.10;;;;;;6284269;22;20011;-76
2022/04/20 09:42:01;;;;;;;3.50;3.17;;;13.30;67.70;;;;;;6284142;22;20509;-76
2022/04/20 09:44:27;;;;;;;5.68;3.50;;;13.40;67.50;;;;;;6285147;22;20321;-80
2022/04/20 09:50:02;;;;;;;5.15;3.60;;;14.20;67.50;;;;;;6284750;22;20870;-79
2022/04/20 09:52:41;;;;;;;3.67;3.22;;;14.00;66.30;;;;;;6295223;22;20012;-80
2022/04/20 09:55:11;;;;;;;4.05;3.13;;;14.00;68.20;;;;;;6266226;22;20015;-78
2022/04/20 09:57:40;;;;;;;4.63;3.15;;;14.00;64.80;;;;;;6260344;22;20084;-80
2022/04/20 10:00:10;;;;;;;6.28;3.65;;;14.30;65.80;;;;;;6273234;22;20034;-80
2022/04/20 10:02:47;;;;;;;4.57;3.70;;;14.20;64.20;;;;;;6255557;22;20100;-80
2022/04/20 10:05:14;;;;;;;4.68;3.47;;;14.10;64.60;;;;;;6286455;22;20126;-81
2022/04/20 10:07:39;;;;;;;4.18;3.20;;;13.80;64.90;;;;;;6259169;22;20011;-82
2022/04/20 10:10:05;;;;;;;4.15;3.28;;;13.70;64.50;;;;;;6287372;22;20026;-78
2022/04/20 10:12:32;;;;;;;3.53;3.17;;;13.80;67.50;;;;;;6258232;22;20008;-79
2022/04/20 10:17:30;;;;;;;4.18;3.10;;;14.40;62.60;;;;;;6252165;22;20621;-77
2022/04/20 10:19:57;;;;;;;8.45;4.45;;;14.30;64.00;;;;;;6251541;22;20009;-76
2022/04/20 10:22:25;;;;;;;4.40;3.42;;;14.30;62.10;;;;;;6252984;22;20066;-77
2022/04/20 10:24:52;;;;;;;4.25;3.78;;;14.40;66.10;;;;;;6226171;22;20455;-76
2022/04/20 10:27:27;;;;;;;4.10;3.38;;;14.30;64.40;;;;;;6252269;22;20723;-76
2022/04/20 10:29:58;;;;;;;4.22;3.67;;;14.40;63.60;;;;;;6251187;22;20012;-79
2022/04/20 10:32:26;;;;;;;5.38;3.50;;;14.40;63.20;;;;;;6223942;22;20008;-77
2022/04/20 10:34:52;;;;;;;8.73;4.10;;;14.80;64.70;;;;;;6252037;22;20446;-78
2022/04/20 10:37:30;;;;;;;6.35;3.58;;;15.00;62.80;;;;;;6252712;22;20001;-77
2022/04/20 10:40:16;;;;;;;5.38;3.55;;;15.40;63.50;;;;;;6252947;22;20011;-78
2022/04/20 10:42:44;;;;;;;4.53;3.45;;;15.50;62.10;;;;;;6253514;22;20011;-80
2022/04/20 10:45:12;;;;;;;4.10;3.25;;;15.60;60.00;;;;;;6254410;22;20027;-79
2022/04/20 10:47:42;;;;;;;4.15;3.75;;;15.60;60.70;;;;;;6253505;22;20008;-78
2022/04/20 10:50:23;;;;;;;4.43;3.47;;;15.60;61.00;;;;;;6253095;22;20047;-78
2022/04/20 10:52:59;;;;;;;3.97;3.50;;;15.70;62.30;;;;;;6226794;22;20042;-78
2022/04/20 10:55:44;;;;;;;4.45;3.40;;;15.90;61.90;;;;;;6253043;22;20009;-77
2022/04/20 10:58:18;;;;;;;3.55;3.20;;;15.90;62.00;;;;;;6227351;22;20005;-78
2022/04/20 11:00:44;;;;;;;6.20;3.80;;;15.90;60.90;;;;;;6252281;22;20071;-77
2022/04/20 11:03:13;;;;;;;4.05;3.60;;;16.10;61.40;;;;;;6253530;22;20043;-77
2022/04/20 11:06:08;;;;;;;5.22;3.10;;;16.20;62.10;;;;;;6255063;22;20535;-77
2022/04/20 11:08:34;;;;;;;4.43;3.30;;;16.00;57.50;;;;;;6235275;22;20004;-81
2022/04/20 11:19:54;;;;;;;4.55;3.65;;;16.10;62.50;;;;;;6253441;22;20039;-77
2022/04/20 11:22:21;;;;;;;5.63;3.85;;;16.10;57.30;;;;;;6253688;22;20013;-78
2022/04/20 11:24:57;;;;;;;5.10;3.45;;;16.20;59.70;;;;;;6253264;22;20015;-79
2022/04/20 11:27:36;;;;;;;4.20;3.40;;;16.60;59.40;;;;;;6254708;22;20405;-78
2022/04/20 11:30:04;;;;;;;4.68;3.30;;;16.50;57.50;;;;;;6255143;22;20448;-82
2022/04/20 11:32:31;;;;;;;4.85;3.28;;;16.80;56.40;;;;;;6226100;22;20472;-77
2022/04/20 11:35:07;;;;;;;5.95;3.22;;;16.90;59.20;;;;;;6253340;22;20124;-77
2022/04/20 11:37:33;;;;;;;4.35;3.10;;;16.90;58.50;;;;;;6252808;22;20009;-76
2022/04/20 11:40:00;;;;;;;3.90;3.50;;;16.60;56.50;;;;;;6252474;22;20004;-77
2022/04/20 11:42:26;;;;;;;4.90;3.60;;;16.30;57.30;;;;;;6252975;22;20449;-77
2022/04/20 11:44:51;;;;;;;4.45;3.30;;;16.50;57.80;;;;;;6252584;22;20044;-76
2022/04/20 11:47:17;;;;;;;4.05;3.60;;;16.80;57.30;;;;;;6255375;22;20083;-77
2022/04/20 11:49:48;;;;;;;3.67;3.25;;;16.90;57.00;;;;;;6227159;22;20104;-77
2022/04/20 11:52:17;;;;;;;4.78;3.20;;;16.90;56.90;;;;;;6225939;22;20044;-76
2022/04/20 11:54:45;;;;;;;4.13;3.35;;;16.90;56.20;;;;;;6253541;22;20071;-77
2022/04/20 11:57:12;;;;;;;5.70;3.58;;;16.90;57.40;;;;;;6226057;22;20031;-77
2022/04/20 11:59:48;;;;;;;7.18;3.63;;;17.30;57.90;;;;;;6226366;22;20440;-77
2022/04/20 12:02:15;;;;;;;4.07;3.38;;;17.50;55.30;;;;;;6253767;22;20016;-76
2022/04/20 12:04:43;;;;;;;3.90;3.50;;;17.80;53.30;;;;;;6255578;22;20136;-78
2022/04/20 12:07:09;;;;;;;7.38;3.47;;;18.00;56.20;;;;;;6229003;22;20008;-78
2022/04/20 12:09:37;;;;;;;4.57;2.90;;;17.70;55.00;;;;;;6254939;22;20007;-78
2022/04/20 12:12:07;;;;;;;7.70;3.28;;;17.40;53.70;;;;;;6225428;22;20141;-77
2022/04/20 12:14:35;;;;;;;8.80;3.80;;;17.60;52.80;;;;;;6225495;22;20012;-76
2022/04/20 12:17:16;;;;;;;7.60;3.70;;;17.90;54.00;;;;;;6227548;22;20015;-77
2022/04/20 12:19:42;;;;;;;4.18;3.50;;;17.70;54.10;;;;;;6264090;22;20035;-76
2022/04/20 12:22:12;;;;;;;4.93;3.42;;;17.30;53.60;;;;;;6281963;22;20008;-76
2022/04/20 12:24:41;;;;;;;3.63;3.33;;;17.20;53.30;;;;;;6257174;22;20024;-77
2022/04/20 12:27:22;;;;;;;4.15;3.20;;;17.60;54.90;;;;;;6253331;22;20016;-77
2022/04/20 12:29:55;;;;;;;4.35;3.38;;;18.20;52.50;;;;;;6221883;22;20317;-77
2022/04/20 12:32:33;;;;;;;4.90;3.70;;;18.00;52.80;;;;;;6250976;22;20009;-77
2022/04/20 12:35:01;;;;;;;6.72;3.78;;;18.20;54.10;;;;;;6252246;22;20005;-77
2022/04/20 12:37:29;;;;;;;6.38;3.58;;;18.50;52.60;;;;;;6252729;22;20009;-77
2022/04/20 12:39:55;;;;;;;5.18;3.67;;;18.40;52.60;;;;;;6224584;22;20091;-77
2022/04/20 12:42:21;;;;;;;4.43;3.55;;;18.20;53.40;;;;;;6252831;22;20013;-76
2022/04/20 12:45:02;;;;;;;6.30;3.67;;;17.90;54.70;;;;;;6225065;22;20008;-77
2022/04/20 12:47:28;;;;;;;5.47;3.95;;;17.90;52.50;;;;;;6252619;22;20070;-76
2022/04/20 12:49:58;;;;;;;5.90;4.07;;;18.00;54.00;;;;;;6252288;22;20080;-77
2022/04/20 12:52:25;;;;;;;4.65;3.50;;;18.40;52.80;;;;;;6225660;22;20460;-77
2022/04/20 12:55:09;;;;;;;5.22;3.67;;;18.60;52.20;;;;;;6252784;22;20008;-76
2022/04/20 13:03:17;;;;;;;5.47;3.83;;;19.20;51.50;;;;;;6250433;22;20005;-76
2022/04/20 13:05:44;;;;;;;5.72;4.10;;;18.60;50.50;;;;;;6251848;22;20078;-76
2022/04/20 13:08:12;;;;;;;5.15;4.13;;;18.40;52.40;;;;;;6252019;22;20004;-76
2022/04/20 13:10:40;;;;;;;6.85;4.40;;;18.30;50.80;;;;;;6244214;22;20008;-77
2022/04/20 13:13:05;;;;;;;5.45;4.00;;;18.40;52.40;;;;;;6250799;22;20017;-77
2022/04/20 13:15:31;;;;;;;5.95;4.00;;;18.80;51.80;;;;;;6252181;22;20017;-77
2022/04/20 13:17:57;;;;;;;4.25;3.67;;;18.50;52.90;;;;;;6225526;22;20128;-76
2022/04/20 13:20:24;;;;;;;4.60;4.20;;;18.90;52.60;;;;;;6225306;22;20096;-77
2022/04/20 13:22:49;;;;;;;5.53;4.30;;;18.90;50.40;;;;;;6250803;22;20494;-76
2022/04/20 13:27:59;;;;;;;4.75;4.28;;;18.90;53.60;;;;;;6251164;22;20009;-76
2022/04/20 13:30:27;;;;;;;6.60;4.20;;;18.90;49.10;;;;;;6224813;22;20009;-76
2022/04/20 13:32:57;;;;;;;8.48;4.35;;;19.20;51.90;;;;;;6251898;22;20065;-77
2022/04/20 13:35:24;;;;;;;7.05;4.43;;;19.10;51.90;;;;;;6223312;22;20461;-76
2022/04/20 13:37:49;;;;;;;7.53;4.35;;;19.40;48.70;;;;;;6251602;22;20011;-76
2022/04/20 13:40:16;;;;;;;4.07;3.67;;;19.20;49.10;;;;;;6224889;22;20391;-79
2022/04/20 13:42:42;;;;;;;7.72;4.32;;;19.70;49.00;;;;;;6223200;22;20004;-83
2022/04/20 13:45:08;;;;;;;7.38;4.60;;;20.60;49.40;;;;;;6251666;22;20447;-77
2022/04/20 13:47:34;;;;;;;7.18;4.57;;;20.70;48.90;;;;;;6251718;22;19996;-76
2022/04/20 13:50:00;;;;;;;5.50;3.90;;;21.20;47.70;;;;;;6251394;22;20008;-77
2022/04/20 13:52:26;;;;;;;4.78;3.97;;;21.40;44.90;;;;;;6251486;22;20732;-78
2022/04/20 13:54:55;;;;;;;8.68;4.50;;;21.50;46.10;;;;;;6251129;22;20019;-76
2022/04/20 13:57:21;;;;;;;5.63;4.30;;;21.50;43.50;;;;;;6251252;22;20005;-76
2022/04/20 13:59:47;;;;;;;7.35;5.18;;;21.50;44.50;;;;;;6223768;22;20486;-77
2022/04/20 14:02:13;;;;;;;6.28;5.13;;;22.30;45.50;;;;;;6251513;22;20012;-77
2022/04/20 14:04:39;;;;;;;6.15;4.57;;;23.10;42.30;;;;;;6251835;22;20008;-78
2022/04/20 14:07:05;;;;;;;6.30;4.22;;;22.50;44.40;;;;;;6251190;22;20004;-77
2022/04/20 14:09:31;;;;;;;5.25;4.07;;;22.70;41.80;;;;;;6251434;22;20435;-77
2022/04/20 14:11:57;;;;;;;5.70;4.63;;;22.70;41.70;;;;;;6251410;22;20428;-78
2022/04/20 14:14:23;;;;;;;6.47;4.70;;;23.20;42.20;;;;;;6223558;22;20085;-77
2022/04/20 14:16:49;;;;;;;4.93;4.53;;;23.70;40.30;;;;;;6224705;22;20103;-77
2022/04/20 14:19:14;;;;;;;5.25;4.75;;;23.70;42.50;;;;;;6225981;22;20001;-78
2022/04/20 14:21:41;;;;;;;4.72;4.25;;;24.00;40.80;;;;;;6225769;22;20063;-78
2022/04/20 14:24:07;;;;;;;5.85;4.53;;;24.20;42.80;;;;;;6253117;22;20128;-78
2022/04/20 14:32:14;;;;;;;5.10;4.60;;;26.80;37.50;;;;;;6253634;22;20084;-78
2022/04/20 14:34:43;;;;;;;5.88;4.40;;;25.80;37.50;;;;;;6227091;22;20547;-79
2022/04/20 14:37:09;;;;;;;4.68;4.28;;;26.30;38.20;;;;;;6226359;22;20393;-82
2022/04/20 14:39:36;;;;;;;4.97;4.47;;;25.60;38.10;;;;;;6253208;22;20004;-80
2022/04/20 14:42:05;;;;;;;6.30;4.43;;;25.20;37.80;;;;;;6226759;22;20092;-78
2022/04/20 14:44:34;;;;;;;4.72;4.22;;;25.70;37.90;;;;;;6225133;22;20416;-78
2022/04/20 14:47:03;;;;;;;5.57;4.43;;;26.40;38.20;;;;;;6224889;22;20009;-77
2022/04/20 14:49:29;;;;;;;5.35;4.43;;;26.80;35.80;;;;;;6252327;22;20005;-79
2022/04/20 14:51:56;;;;;;;5.35;4.65;;;26.40;37.50;;;;;;6252509;22;20087;-77
2022/04/20 14:54:22;;;;;;;5.20;4.70;;;26.00;39.40;;;;;;6252918;22;20016;-78
2022/04/20 14:56:48;;;;;;;8.80;4.70;;;25.60;38.80;;;;;;6254302;22;20014;-77
2022/04/20 14:59:15;;;;;;;6.00;4.50;;;24.70;37.10;;;;;;6229701;22;20842;-76
2022/04/20 15:01:41;;;;;;;5.03;4.53;;;24.90;36.30;;;;;;6267356;22;20012;-77
2022/04/20 15:04:06;;;;;;;10.32;4.57;;;25.50;40.30;;;;;;6268984;22;20063;-76
2022/04/20 15:06:33;;;;;;;7.57;4.90;;;24.50;38.30;;;;;;6259562;22;20020;-76
2022/04/20 15:08:59;;;;;;;6.43;4.22;;;24.60;38.30;;;;;;6227311;22;20004;-76
2022/04/20 15:11:25;;;;;;;8.32;4.43;;;25.40;37.40;;;;;;6263658;22;20001;-77
2022/04/20 15:13:51;;;;;;;7.60;4.32;;;26.80;36.60;;;;;;6262003;22;20008;-77
2022/04/20 15:16:19;;;;;;;8.15;4.30;;;28.20;33.80;;;;;;6259804;22;20023;-77
2022/04/20 15:18:45;;;;;;;5.22;4.63;;;27.60;34.70;;;;;;6226897;22;20005;-77
2022/04/20 15:21:11;;;;;;;5.40;4.43;;;29.30;32.50;;;;;;6255174;22;20429;-76
2022/04/20 15:23:38;;;;;;;5.97;4.22;;;28.50;35.50;;;;;;6254345;22;20078;-79
2022/04/20 15:26:04;;;;;;;8.43;4.60;;;27.90;33.60;;;;;;6227322;22;20012;-78
2022/04/20 15:28:30;;;;;;;7.32;4.78;;;27.70;33.50;;;;;;6253222;22;19997;-78
2022/04/20 15:30:57;;;;;;;5.00;4.10;;;27.00;34.90;;;;;;6226337;22;20079;-78
2022/04/20 15:33:23;;;;;;;4.20;3.80;;;26.30;35.10;;;;;;6226954;22;20091;-82
2022/04/20 15:35:49;;;;;;;4.40;3.97;;;27.50;35.30;;;;;;6246986;22;20005;-78
2022/04/20 15:38:15;;;;;;;6.47;3.88;;;28.30;34.00;;;;;;6252997;22;20011;-78
2022/04/20 15:40:41;;;;;;;5.72;4.35;;;28.20;31.80;;;;;;6253823;22;20097;-78
2022/04/20 15:43:09;;;;;;;9.45;4.78;;;28.10;33.50;;;;;;6226666;22;20016;-77
2022/04/20 15:45:35;;;;;;;5.70;4.10;;;29.20;32.40;;;;;;6226721;22;20159;-77
2022/04/20 15:48:01;;;;;;;9.73;4.32;;;28.50;32.10;;;;;;6225101;22;20116;-82
2022/04/20 15:50:28;;;;;;;7.38;3.45;;;28.00;32.80;;;;;;6225437;22;20063;-79
2022/04/20 15:52:53;;;;;;;5.80;3.92;;;28.00;31.30;;;;;;6226535;22;20494;-83
2022/04/20 16:00:47;;;;;;;7.47;3.60;;;29.80;31.80;;;;;;6254228;22;20009;-79
2022/04/20 16:03:17;;;;;;;4.53;4.00;;;28.30;32.00;;;;;;6231141;22;20009;-79
2022/04/20 16:05:44;;;;;;;5.30;3.50;;;28.30;30.70;;;;;;6255233;22;20012;-80
2022/04/20 16:08:09;;;;;;;5.75;4.22;;;27.60;31.80;;;;;;6255817;22;20459;-78
2022/04/20 16:10:35;;;;;;;6.72;4.38;;;27.40;30.90;;;;;;6230264;22;20079;-79
2022/04/20 16:13:01;;;;;;;4.70;4.30;;;27.40;33.90;;;;;;6254978;22;20340;-78
2022/04/20 16:15:27;;;;;;;5.85;3.80;;;27.30;33.00;;;;;;6256576;22;20379;-77
2022/04/20 16:17:53;;;;;;;4.53;3.88;;;27.70;33.30;;;;;;6281937;22;20044;-77
2022/04/20 16:20:19;;;;;;;4.22;3.83;;;28.90;30.30;;;;;;6283958;22;20024;-77
2022/04/20 16:22:45;;;;;;;3.65;3.30;;;27.80;30.90;;;;;;6285388;22;20012;-77
2022/04/20 16:25:12;;;;;;;3.88;3.50;;;27.40;30.80;;;;;;6284631;22;20004;-76
2022/04/20 16:27:38;;;;;;;6.00;3.83;;;27.80;30.70;;;;;;6283632;22;20008;-77
2022/04/20 16:30:05;;;;;;;4.45;3.53;;;27.90;32.00;;;;;;6281426;22;20300;-77
2022/04/20 16:32:31;;;;;;;7.20;3.35;;;27.50;29.70;;;;;;6281435;22;20054;-77
2022/04/20 16:34:57;;;;;;;5.53;3.38;;;28.10;32.10;;;;;;6283280;22;20505;-76
2022/04/20 16:37:22;;;;;;;7.40;3.80;;;28.10;32.00;;;;;;6283165;22;20004;-76
2022/04/20 16:39:49;;;;;;;3.95;3.55;;;27.90;32.90;;;;;;6280889;22;20008;-77
2022/04/20 16:42:15;;;;;;;7.20;3.78;;;27.80;30.60;;;;;;6282998;22;20016;-76
2022/04/20 16:44:40;;;;;;;4.95;3.65;;;27.40;30.30;;;;;;6283100;22;20034;-77
2022/04/20 16:47:06;;;;;;;5.93;3.40;;;26.70;30.70;;;;;;6283021;22;20043;-76
2022/04/20 16:49:32;;;;;;;6.00;3.65;;;26.40;30.40;;;;;;6281262;22;20035;-76
2022/04/20 16:51:57;;;;;;;6.28;4.05;;;25.30;30.90;;;;;;6282951;22;20047;-75
2022/04/20 16:54:23;;;;;;;4.60;4.00;;;24.50;33.60;;;;;;6282916;22;20313;-75
2022/04/20 16:56:49;;;;;;;7.15;4.20;;;24.50;34.30;;;;;;6283617;22;20011;-79
2022/04/20 16:59:15;;;;;;;6.20;4.63;;;25.30;34.50;;;;;;6282479;22;19997;-79
2022/04/20 17:01:42;;;;;;;4.97;4.28;;;24.20;34.00;;;;;;6282851;22;20039;-78
2022/04/20 17:04:09;;;;;;;5.25;4.15;;;22.20;35.90;;;;;;6283942;22;20673;-82
2022/04/20 17:06:36;;;;;;;4.53;3.88;;;20.80;38.70;;;;;;6283387;22;20012;-85
2022/04/20 17:09:03;;;;;;;4.68;3.67;;;21.20;39.70;;;;;;6285512;22;20332;-79
2022/04/20 17:11:31;;;;;;;4.45;3.50;;;21.70;36.90;;;;;;6283939;22;20039;-79
2022/04/20 17:14:00;;;;;;;5.60;4.10;;;21.10;36.50;;;;;;6286025;22;20000;-81
2022/04/20 17:16:26;;;;;;;5.60;3.67;;;20.60;38.00;;;;;;6285858;22;20023;-78
2022/04/20 17:18:53;;;;;;;5.25;3.90;;;20.50;39.10;;;;;;6284875;22;20331;-78
2022/04/20 17:26:47;;;;;;;5.55;3.72;;;18.20;42.30;;;;;;6282524;22;20012;-82
2022/04/20 17:29:13;;;;;;;4.05;3.58;;;17.80;42.50;;;;;;6280160;22;20440;-83
2022/04/20 17:31:40;;;;;;;8.10;3.70;;;17.30;44.20;;;;;;6279690;22;20103;-86
2022/04/20 17:34:07;;;;;;;5.07;3.25;;;16.70;44.60;;;;;;6282981;22;20313;-83
2022/04/20 17:36:39;;;;;;;8.88;3.58;;;16.30;47.00;;;;;;6283214;22;20454;-82
2022/04/20 17:39:16;;;;;;;5.63;3.70;;;15.90;47.80;;;;;;6284515;22;20004;-77
2022/04/20 17:41:44;;;;;;;6.20;3.63;;;15.60;47.60;;;;;;6286545;22;20097;-84
2022/04/20 17:44:11;;;;;;;3.80;3.38;;;15.40;49.10;;;;;;6287748;22;20440;-80
2022/04/20 17:46:37;;;;;;;5.55;3.72;;;15.10;48.60;;;;;;6285291;22;20087;-79
2022/04/20 17:49:03;;;;;;;6.72;3.42;;;14.90;50.50;;;;;;6283942;22;20402;-79
2022/04/20 17:51:33;;;;;;;5.22;3.60;;;14.60;50.20;;;;;;6285526;22;20019;-83